Time;durP1;ratioP1;P1;durP2;ratioP2;P2;SDS_P1;SDS_P2;PMS_P1;PMS_P2;Temp;Humidity;BMP_temperature;BMP_pressure;BME280_temperature;BME280_humidity;BME280_pressure;Samples;Min_cycle;Max_cycle;Signal;HPM_P1;HPM_P2
2022/11/16 00:01:48;;;;;;;8.45;7.03;;;11.20;99.90;;;;;;5032630;28;20508;-63
2022/11/16 00:04:14;;;;;;;9.73;6.60;;;11.30;99.90;;;;;;5031317;28;20069;-63
2022/11/16 00:06:40;;;;;;;8.77;7.25;;;11.20;99.90;;;;;;5036239;28;20525;-62
2022/11/16 00:09:21;;;;;;;11.50;8.05;;;11.10;99.90;;;;;;5049748;28;20461;-63
2022/11/16 00:12:11;;;;;;;12.35;6.60;;;11.30;99.90;;;;;;5039975;28;20579;-63
2022/11/16 00:14:37;;;;;;;12.35;7.82;;;11.20;99.90;;;;;;5043811;28;20045;-63
2022/11/16 00:17:03;;;;;;;10.05;7.30;;;11.30;99.90;;;;;;5054349;28;20174;-63
2022/11/16 00:19:29;;;;;;;11.65;8.55;;;11.10;99.90;;;;;;5056489;28;20438;-64
2022/11/16 00:21:55;;;;;;;9.88;7.57;;;11.20;99.90;;;;;;5038215;28;20037;-63
2022/11/16 00:24:22;;;;;;;10.45;8.60;;;11.30;99.90;;;;;;5045809;28;20036;-63
2022/11/16 00:26:48;;;;;;;10.82;7.22;;;;;;;;;;5055208;28;20475;-64
2022/11/16 00:29:19;;;;;;;10.63;7.93;;;11.20;99.90;;;;;;5056521;28;20041;-63
2022/11/16 00:31:46;;;;;;;11.15;8.30;;;11.40;99.90;;;;;;5056368;28;20044;-64
2022/11/16 00:34:12;;;;;;;12.40;8.88;;;11.20;99.90;;;;;;5041417;28;20429;-63
2022/11/16 00:36:37;;;;;;;12.88;8.70;;;11.30;99.90;;;;;;5056504;28;20117;-62
2022/11/16 00:39:03;;;;;;;13.75;8.68;;;11.20;99.90;;;;;;5056291;28;20123;-62
2022/11/16 00:41:29;;;;;;;11.13;8.88;;;11.20;99.90;;;;;;5056345;28;20075;-63
2022/11/16 00:43:54;;;;;;;12.82;8.82;;;11.30;99.90;;;;;;5039895;28;20033;-63
2022/11/16 00:46:20;;;;;;;12.60;8.77;;;11.20;99.90;;;;;;5035210;28;20037;-63
2022/11/16 00:48:45;;;;;;;10.68;8.70;;;11.20;99.90;;;;;;5034864;28;20495;-64
2022/11/16 00:51:11;;;;;;;14.73;9.20;;;11.30;99.90;;;;;;5056277;28;20128;-63
2022/11/16 00:53:37;;;;;;;12.00;8.88;;;11.30;99.90;;;;;;5056106;28;20483;-62
2022/11/16 00:56:03;;;;;;;11.85;9.10;;;11.30;99.90;;;;;;5041976;28;20104;-63
2022/11/16 00:58:29;;;;;;;13.20;8.98;;;11.30;99.90;;;;;;5055966;28;20450;-63
2022/11/16 01:00:54;;;;;;;11.90;9.63;;;11.20;99.90;;;;;;5041740;28;20034;-62
2022/11/16 01:03:20;;;;;;;12.18;9.73;;;11.30;99.90;;;;;;5055727;28;20041;-63
2022/11/16 01:05:46;;;;;;;13.63;9.38;;;11.40;99.90;;;;;;5054423;28;20057;-63
2022/11/16 01:08:12;;;;;;;17.27;11.43;;;;;;;;;;5050802;28;20045;-63
2022/11/16 01:10:39;;;;;;;14.13;9.60;;;11.30;99.90;;;;;;5041713;28;20459;-63
2022/11/16 01:13:06;;;;;;;16.58;10.93;;;;;;;;;;5053142;28;20045;-63
2022/11/16 01:15:31;;;;;;;14.55;9.80;;;11.30;99.90;;;;;;5053037;28;20040;-63
2022/11/16 01:17:57;;;;;;;15.80;11.23;;;11.20;99.90;;;;;;5054271;28;20098;-63
2022/11/16 01:20:26;;;;;;;14.45;11.95;;;11.20;99.90;;;;;;5048811;28;20048;-62
2022/11/16 01:22:51;;;;;;;16.50;12.20;;;11.20;99.90;;;;;;5032783;28;20048;-63
2022/11/16 01:25:17;;;;;;;17.00;12.05;;;11.30;99.90;;;;;;5051192;28;20029;-63
2022/11/16 01:27:43;;;;;;;18.95;12.00;;;11.40;99.90;;;;;;5054424;28;20029;-63
2022/11/16 01:30:11;;;;;;;15.52;11.77;;;11.30;99.90;;;;;;5053297;28;20522;-63
2022/11/16 01:32:37;;;;;;;21.90;13.10;;;11.30;99.90;;;;;;5041296;28;20041;-63
2022/11/16 01:35:04;;;;;;;16.08;12.00;;;11.20;99.90;;;;;;5054230;28;20391;-63
2022/11/16 01:37:30;;;;;;;20.70;13.23;;;11.30;99.90;;;;;;5040228;28;20454;-62
2022/11/16 01:39:56;;;;;;;18.10;13.02;;;11.30;99.90;;;;;;5053972;28;20044;-63
2022/11/16 01:42:27;;;;;;;20.48;13.88;;;11.30;99.90;;;;;;5054004;28;20033;-63
2022/11/16 01:45:28;;;;;;;17.17;12.63;;;11.30;99.90;;;;;;5042750;28;20083;-62
2022/11/16 01:47:54;;;;;;;17.42;13.23;;;11.10;99.90;;;;;;5041362;28;20395;-62
2022/11/16 01:50:21;;;;;;;20.25;13.07;;;11.20;99.90;;;;;;5040799;28;20045;-63
2022/11/16 01:53:07;;;;;;;19.45;12.20;;;11.20;99.90;;;;;;5053229;28;20044;-63
2022/11/16 01:55:35;;;;;;;22.08;14.02;;;11.30;99.90;;;;;;5052284;28;20045;-64
2022/11/16 01:58:01;;;;;;;20.23;13.57;;;11.30;99.90;;;;;;5040456;28;20130;-63
2022/11/16 02:00:27;;;;;;;25.48;14.20;;;11.10;99.90;;;;;;5053676;28;20041;-63
2022/11/16 02:02:52;;;;;;;19.10;14.05;;;11.40;99.90;;;;;;5053242;28;20037;-63
2022/11/16 02:05:26;;;;;;;20.98;13.60;;;11.50;99.90;;;;;;4998047;28;1038785;-63
2022/11/16 02:11:00;;;;;;;19.50;14.55;;;11.20;99.90;;;;;;5044136;28;20426;-63
2022/11/16 02:13:49;;;;;;;19.08;14.52;;;11.30;99.90;;;;;;5039238;28;20045;-63
2022/11/16 02:16:33;;;;;;;22.40;14.90;;;11.50;99.90;;;;;;5042032;28;20038;-63
2022/11/16 02:19:33;;;;;;;18.92;14.95;;;11.30;99.90;;;;;;5040257;28;20076;-62
2022/11/16 02:22:12;;;;;;;22.23;14.68;;;11.30;99.90;;;;;;5026422;28;20053;-62
2022/11/16 02:25:10;;;;;;;23.38;14.65;;;11.30;99.90;;;;;;5045664;28;20041;-63
2022/11/16 02:27:55;;;;;;;20.25;13.10;;;11.30;99.90;;;;;;5042299;28;20506;-62
2022/11/16 02:30:21;;;;;;;22.60;14.60;;;11.30;99.90;;;;;;5054351;28;20044;-63
2022/11/16 02:32:53;;;;;;;23.40;14.52;;;11.50;99.90;;;;;;5045419;28;20041;-62
2022/11/16 02:35:35;;;;;;;21.58;14.27;;;11.60;99.90;;;;;;5034868;28;20075;-63
2022/11/16 02:38:10;;;;;;;18.83;13.77;;;11.30;99.90;;;;;;5043289;28;20075;-62
2022/11/16 02:40:39;;;;;;;21.58;15.30;;;11.40;99.90;;;;;;5046876;28;20050;-62
2022/11/16 02:43:08;;;;;;;24.60;13.95;;;11.30;99.90;;;;;;5043391;28;20086;-62
2022/11/16 02:45:41;;;;;;;19.67;13.68;;;11.30;99.90;;;;;;5053661;28;20505;-63
2022/11/16 02:48:22;;;;;;;22.95;14.32;;;11.30;99.90;;;;;;5044990;28;20038;-62
2022/11/16 02:50:51;;;;;;;18.98;13.25;;;11.40;99.90;;;;;;5049376;28;20122;-62
2022/11/16 02:53:19;;;;;;;19.35;14.52;;;11.40;99.90;;;;;;5053905;28;20059;-62
2022/11/16 02:55:45;;;;;;;21.83;13.23;;;11.30;99.90;;;;;;5052301;28;20049;-63
2022/11/16 02:58:13;;;;;;;18.52;13.18;;;11.40;99.90;;;;;;5045017;28;20041;-62
2022/11/16 03:00:57;;;;;;;20.73;14.25;;;11.30;99.90;;;;;;5047614;28;20045;-63
2022/11/16 03:03:34;;;;;;;18.92;13.10;;;11.50;99.90;;;;;;5033819;28;20037;-63
2022/11/16 03:06:14;;;;;;;19.42;12.68;;;11.30;99.90;;;;;;5045440;28;20057;-62
2022/11/16 03:08:56;;;;;;;21.02;13.43;;;11.10;99.90;;;;;;5034541;28;20057;-62
2022/11/16 03:14:09;;;;;;;17.35;12.45;;;;;;;;;;5040932;28;20499;-62
2022/11/16 03:16:39;;;;;;;18.95;13.38;;;11.40;99.90;;;;;;5052200;28;20094;-63
2022/11/16 03:19:07;;;;;;;17.13;11.68;;;;;;;;;;5053485;28;20041;-63
2022/11/16 03:21:42;;;;;;;18.80;13.30;;;11.50;99.90;;;;;;5051917;28;20044;-62
2022/11/16 03:24:08;;;;;;;17.70;12.23;;;11.50;99.90;;;;;;5039338;28;20076;-63
2022/11/16 03:26:52;;;;;;;21.08;14.35;;;11.40;99.90;;;;;;5040138;28;20432;-62
2022/11/16 03:29:28;;;;;;;17.27;12.50;;;11.70;99.90;;;;;;5033325;28;20041;-62
2022/11/16 03:32:02;;;;;;;19.13;12.57;;;11.50;99.90;;;;;;5048243;28;20056;-63
2022/11/16 03:34:34;;;;;;;20.88;13.23;;;11.40;99.90;;;;;;5053097;28;20120;-62
2022/11/16 03:37:01;;;;;;;18.77;13.45;;;11.20;99.90;;;;;;5051955;28;20485;-63
2022/11/16 03:39:37;;;;;;;16.60;12.63;;;11.40;99.90;;;;;;5053253;28;20391;-63
2022/11/16 03:42:09;;;;;;;18.45;13.30;;;11.30;99.90;;;;;;5053397;28;20040;-63
2022/11/16 03:44:36;;;;;;;16.77;11.25;;;11.50;99.90;;;;;;5052720;28;20041;-63
2022/11/16 03:47:02;;;;;;;17.67;11.35;;;11.50;99.90;;;;;;5039231;28;20454;-63
2022/11/16 03:49:29;;;;;;;18.05;12.13;;;11.50;99.90;;;;;;5052781;28;20032;-63
2022/11/16 03:51:55;;;;;;;13.85;10.15;;;11.50;99.90;;;;;;5040802;28;20042;-63
2022/11/16 03:54:21;;;;;;;15.25;10.80;;;11.40;99.90;;;;;;5050893;28;20040;-63
2022/11/16 03:56:47;;;;;;;16.27;10.98;;;11.40;99.90;;;;;;5042606;28;20144;-63
2022/11/16 03:59:12;;;;;;;16.23;10.95;;;11.50;99.90;;;;;;5034912;28;20457;-63
2022/11/16 04:01:38;;;;;;;18.13;11.52;;;11.50;99.90;;;;;;5038618;28;20428;-63
2022/11/16 04:04:03;;;;;;;17.45;11.75;;;11.40;99.90;;;;;;5032601;28;20085;-63
2022/11/16 04:25:56;;;;;;;18.35;13.07;;;11.50;99.90;;;;;;5031143;28;20045;-63
2022/11/16 04:28:27;;;;;;;15.25;12.57;;;11.30;99.90;;;;;;5032421;28;20026;-63
2022/11/16 04:39:10;;;;;;;19.40;12.68;;;11.40;99.90;;;;;;5044078;28;20045;-63
2022/11/16 04:44:20;;;;;;;17.35;11.68;;;11.40;99.90;;;;;;5032319;28;20045;-63
2022/11/16 04:49:30;;;;;;;17.90;12.70;;;;;;;;;;5036916;28;20061;-65
2022/11/16 04:51:56;;;;;;;15.63;12.07;;;11.50;99.90;;;;;;5031033;28;20046;-63
2022/11/16 04:54:21;;;;;;;20.30;13.23;;;11.50;99.90;;;;;;5032218;28;20098;-63
2022/11/16 04:56:47;;;;;;;17.55;12.23;;;11.50;99.90;;;;;;5031845;28;20044;-63
2022/11/16 04:59:12;;;;;;;17.17;12.45;;;11.50;99.90;;;;;;5035947;28;20041;-63
2022/11/16 05:04:23;;;;;;;18.80;12.13;;;11.60;99.90;;;;;;5035885;28;20049;-63
2022/11/16 05:06:48;;;;;;;18.17;12.63;;;11.60;99.90;;;;;;5048529;28;20041;-63
2022/11/16 05:09:14;;;;;;;19.02;12.80;;;11.50;99.90;;;;;;5049091;28;20074;-62
2022/11/16 05:11:40;;;;;;;17.10;12.85;;;11.30;99.90;;;;;;5054407;28;20084;-63
2022/11/16 05:14:07;;;;;;;16.73;12.68;;;11.40;99.90;;;;;;5035899;28;20041;-63
2022/11/16 05:16:32;;;;;;;17.05;12.05;;;11.40;99.90;;;;;;5035434;28;20399;-63
2022/11/16 05:21:42;;;;;;;19.02;13.82;;;11.50;99.90;;;;;;5043391;28;20088;-63
2022/11/16 05:26:56;;;;;;;18.88;13.75;;;11.40;99.90;;;;;;5040896;28;20085;-63
2022/11/16 05:29:22;;;;;;;17.65;13.85;;;11.40;99.90;;;;;;5039255;28;20501;-63
2022/11/16 05:31:48;;;;;;;19.67;14.55;;;11.40;99.90;;;;;;5044092;28;20044;-63
2022/11/16 05:34:13;;;;;;;18.13;13.93;;;11.30;99.90;;;;;;5034715;28;20041;-63
2022/11/16 05:36:39;;;;;;;20.20;14.68;;;11.30;99.90;;;;;;5055021;28;20483;-63
2022/11/16 05:39:05;;;;;;;20.63;15.93;;;11.30;99.90;;;;;;5052460;28;20072;-63
2022/11/16 05:41:32;;;;;;;19.33;13.65;;;11.40;99.90;;;;;;5033892;28;20163;-63
2022/11/16 05:43:58;;;;;;;21.50;15.63;;;11.40;99.90;;;;;;5047313;28;20045;-63
2022/11/16 05:46:24;;;;;;;19.83;15.48;;;11.30;99.90;;;;;;5048065;28;20091;-63
2022/11/16 05:48:50;;;;;;;19.88;15.18;;;11.50;99.90;;;;;;5034132;28;20412;-64
2022/11/16 05:51:16;;;;;;;18.02;14.65;;;11.30;99.90;;;;;;5037134;28;20047;-63
2022/11/16 05:53:43;;;;;;;22.33;15.10;;;11.30;99.90;;;;;;5045372;28;20042;-63
2022/11/16 05:56:10;;;;;;;19.77;15.52;;;11.40;99.90;;;;;;5033335;28;20044;-63
2022/11/16 05:58:36;;;;;;;22.60;15.57;;;11.40;99.90;;;;;;5017129;28;20475;-63
2022/11/16 06:01:02;;;;;;;23.25;16.40;;;11.30;99.90;;;;;;5033581;28;20047;-63
2022/11/16 06:03:28;;;;;;;21.00;16.20;;;11.50;99.90;;;;;;5033544;28;20462;-63
2022/11/16 06:05:55;;;;;;;19.40;15.52;;;11.40;99.90;;;;;;5046512;28;20096;-63
2022/11/16 06:08:20;;;;;;;21.83;16.33;;;11.40;99.90;;;;;;5045672;28;20049;-64
2022/11/16 06:10:46;;;;;;;20.38;16.00;;;11.30;99.90;;;;;;5033257;28;20403;-63
2022/11/16 06:13:11;;;;;;;25.38;18.20;;;11.30;99.90;;;;;;5033245;28;20049;-63
2022/11/16 06:15:37;;;;;;;23.20;16.75;;;11.20;99.90;;;;;;5033233;28;20108;-63
2022/11/16 06:18:03;;;;;;;21.35;16.10;;;11.40;99.90;;;;;;5034647;28;20037;-63
2022/11/16 06:20:29;;;;;;;20.27;14.32;;;11.30;99.90;;;;;;5034422;28;20033;-63
2022/11/16 06:22:54;;;;;;;18.60;14.32;;;11.30;99.90;;;;;;5034421;28;20033;-63
2022/11/16 06:25:20;;;;;;;15.75;12.05;;;11.40;99.90;;;;;;5033062;28;20128;-64
2022/11/16 06:27:46;;;;;;;14.02;10.80;;;11.40;99.90;;;;;;5040509;28;20497;-63
2022/11/16 06:30:11;;;;;;;14.45;11.07;;;11.30;99.90;;;;;;5042370;28;20037;-63
2022/11/16 06:32:37;;;;;;;14.45;10.95;;;11.30;99.90;;;;;;5032720;28;20040;-63
2022/11/16 06:35:03;;;;;;;14.77;10.68;;;11.10;99.90;;;;;;5032762;28;20053;-63
2022/11/16 06:37:29;;;;;;;17.02;11.35;;;11.40;99.90;;;;;;5047970;28;20120;-63
2022/11/16 06:39:54;;;;;;;13.10;9.90;;;11.30;99.90;;;;;;5034071;28;20033;-63
2022/11/16 06:42:20;;;;;;;15.93;10.10;;;;;;;;;;5034135;28;20064;-64
2022/11/16 06:44:46;;;;;;;12.20;8.52;;;11.20;99.90;;;;;;5038870;28;20110;-63
2022/11/16 06:47:11;;;;;;;10.00;8.35;;;11.20;99.90;;;;;;5040531;28;20049;-63
2022/11/16 06:49:37;;;;;;;11.65;7.85;;;11.00;99.90;;;;;;5050563;28;20049;-63
2022/11/16 06:52:03;;;;;;;10.05;7.22;;;11.10;99.90;;;;;;5043725;28;20117;-63
2022/11/16 06:54:29;;;;;;;10.57;7.53;;;11.10;99.90;;;;;;5047443;28;20041;-63
2022/11/16 06:56:54;;;;;;;6.00;4.15;;;10.90;99.90;;;;;;5033621;28;20504;-63
2022/11/16 06:59:20;;;;;;;6.93;4.50;;;10.90;99.90;;;;;;5033890;28;20092;-63
2022/11/16 07:01:45;;;;;;;6.40;4.60;;;11.00;99.90;;;;;;5032325;28;20044;-64
2022/11/16 07:04:14;;;;;;;4.63;3.60;;;10.80;99.90;;;;;;5032493;28;20053;-63
2022/11/16 07:06:40;;;;;;;5.35;3.35;;;10.90;99.90;;;;;;5033567;28;20507;-63
2022/11/16 07:09:06;;;;;;;7.25;4.25;;;;;;;;;;5033556;28;20040;-63
2022/11/16 07:11:33;;;;;;;6.45;4.18;;;10.70;99.90;;;;;;5043287;28;20557;-63
2022/11/16 07:13:59;;;;;;;6.88;4.13;;;10.80;99.90;;;;;;5039852;28;20041;-63
2022/11/16 07:16:25;;;;;;;4.82;3.13;;;11.00;99.90;;;;;;5049874;28;20490;-63
2022/11/16 07:18:50;;;;;;;7.05;3.38;;;10.80;99.90;;;;;;5036064;28;20039;-63
2022/11/16 07:21:17;;;;;;;6.78;3.70;;;10.70;99.90;;;;;;5045582;28;20029;-64
2022/11/16 07:23:43;;;;;;;6.00;3.78;;;10.60;99.90;;;;;;5046346;28;20036;-63
2022/11/16 07:26:09;;;;;;;6.00;2.25;;;10.70;99.90;;;;;;5044103;28;20037;-64
2022/11/16 07:28:35;;;;;;;5.78;2.78;;;10.70;99.90;;;;;;5034502;28;20040;-62
2022/11/16 07:31:05;;;;;;;4.43;2.75;;;10.70;99.90;;;;;;5015129;28;20037;-62
2022/11/16 07:33:30;;;;;;;6.60;3.33;;;10.60;99.90;;;;;;5033041;28;20053;-63
2022/11/16 07:36:03;;;;;;;6.50;4.57;;;10.70;99.90;;;;;;5044182;28;20490;-64
2022/11/16 07:38:29;;;;;;;6.90;4.03;;;10.80;99.90;;;;;;5032884;28;20033;-64
2022/11/16 07:41:02;;;;;;;6.65;4.65;;;10.70;99.90;;;;;;5031664;28;20041;-63
2022/11/16 07:43:30;;;;;;;10.68;6.60;;;10.80;99.90;;;;;;5033215;28;20124;-63
2022/11/16 07:46:02;;;;;;;10.32;6.78;;;10.90;99.90;;;;;;5032906;28;20121;-63
2022/11/16 07:48:27;;;;;;;11.73;7.28;;;10.90;99.90;;;;;;5031830;28;20120;-63
2022/11/16 07:50:53;;;;;;;10.70;6.78;;;10.70;99.90;;;;;;5032688;28;20145;-64
2022/11/16 07:53:19;;;;;;;13.70;7.18;;;10.80;99.90;;;;;;5032556;28;20072;-63
2022/11/16 07:55:51;;;;;;;11.38;7.35;;;10.90;99.90;;;;;;5032762;28;20037;-63
2022/11/16 07:58:16;;;;;;;11.32;8.23;;;10.90;99.90;;;;;;5032665;28;20491;-63
2022/11/16 08:00:42;;;;;;;14.50;8.27;;;10.80;99.90;;;;;;5032675;28;20045;-63
2022/11/16 08:03:07;;;;;;;16.40;10.23;;;10.80;99.90;;;;;;5031328;28;20040;-63
2022/11/16 08:05:33;;;;;;;15.05;10.05;;;10.70;99.90;;;;;;5032495;28;20064;-63
2022/11/16 08:07:58;;;;;;;13.10;9.90;;;10.80;99.90;;;;;;5033400;28;20086;-63
2022/11/16 08:10:24;;;;;;;14.02;9.45;;;10.80;99.90;;;;;;5034658;28;20037;-64
2022/11/16 08:12:50;;;;;;;18.75;11.02;;;10.90;99.90;;;;;;5032770;28;20068;-64
2022/11/16 08:15:16;;;;;;;19.92;11.20;;;;;;;;;;5032122;28;20128;-63
2022/11/16 08:17:41;;;;;;;17.10;10.50;;;11.00;99.90;;;;;;5038429;28;20033;-64
2022/11/16 08:20:08;;;;;;;16.65;12.23;;;10.90;99.90;;;;;;5039319;28;20373;-63
2022/11/16 08:22:34;;;;;;;20.65;11.40;;;10.90;99.90;;;;;;5031499;28;20030;-63
2022/11/16 08:24:59;;;;;;;20.00;11.30;;;10.90;99.90;;;;;;5033791;28;20247;-64
2022/11/16 08:27:25;;;;;;;17.27;10.82;;;11.00;99.90;;;;;;5034088;28;20221;-64
2022/11/16 08:29:51;;;;;;;15.52;10.90;;;10.90;99.90;;;;;;5035210;28;20076;-64
2022/11/16 08:32:16;;;;;;;16.88;11.00;;;11.00;99.90;;;;;;5033808;28;20033;-65
2022/11/16 08:34:42;;;;;;;15.77;11.23;;;10.90;99.90;;;;;;5038772;28;20041;-64
2022/11/16 08:37:07;;;;;;;14.38;10.27;;;11.30;99.90;;;;;;5047814;28;20413;-65
2022/11/16 08:39:33;;;;;;;17.17;10.52;;;11.10;99.90;;;;;;5039252;28;20562;-64
2022/11/16 08:41:58;;;;;;;15.60;10.07;;;10.90;99.90;;;;;;5023591;28;20531;-64
2022/11/16 08:44:24;;;;;;;22.45;11.60;;;11.20;99.90;;;;;;5036338;28;20072;-64
2022/11/16 08:46:49;;;;;;;17.25;11.88;;;11.10;99.90;;;;;;5034810;28;20435;-65
2022/11/16 08:49:15;;;;;;;15.93;10.93;;;11.20;99.90;;;;;;5034794;28;20041;-64
2022/11/16 08:51:40;;;;;;;22.40;11.15;;;11.40;99.90;;;;;;5034796;28;20050;-64
2022/11/16 08:54:06;;;;;;;16.95;11.35;;;11.30;99.90;;;;;;5034397;28;20046;-64
2022/11/16 08:56:32;;;;;;;17.67;11.63;;;11.20;99.90;;;;;;5035963;28;20040;-62
2022/11/16 08:58:57;;;;;;;17.17;11.95;;;11.30;99.90;;;;;;5035924;28;20044;-64
2022/11/16 09:01:26;;;;;;;19.58;11.98;;;11.40;99.90;;;;;;5035824;28;20040;-63
2022/11/16 09:03:52;;;;;;;19.25;12.05;;;11.40;99.90;;;;;;5035588;28;20037;-64
2022/11/16 09:06:18;;;;;;;17.02;11.43;;;11.50;99.90;;;;;;5034334;28;20049;-63
2022/11/16 09:08:45;;;;;;;15.07;11.65;;;11.70;99.90;;;;;;5035998;28;20400;-64
2022/11/16 09:11:14;;;;;;;16.77;12.05;;;11.70;99.90;;;;;;5044230;28;20059;-63
2022/11/16 09:13:40;;;;;;;18.27;11.50;;;11.60;99.90;;;;;;5054383;28;20059;-64
2022/11/16 09:16:07;;;;;;;19.58;12.55;;;11.60;99.90;;;;;;5046275;28;20052;-63
2022/11/16 09:18:33;;;;;;;21.38;13.20;;;11.60;99.90;;;;;;5047836;28;20045;-64
2022/11/16 09:20:58;;;;;;;21.27;12.30;;;11.70;99.90;;;;;;5034416;28;20388;-63
2022/11/16 09:23:24;;;;;;;20.90;13.88;;;11.70;99.90;;;;;;5037457;28;20156;-64
2022/11/16 09:25:50;;;;;;;18.42;12.20;;;11.80;99.90;;;;;;5035207;28;20511;-64
2022/11/16 09:28:17;;;;;;;21.90;13.88;;;11.80;99.90;;;;;;5035473;28;20037;-64
2022/11/16 09:30:44;;;;;;;26.42;12.65;;;11.80;99.90;;;;;;5035088;28;20037;-64
2022/11/16 09:33:09;;;;;;;20.75;12.35;;;11.80;99.90;;;;;;5039989;28;20029;-63
2022/11/16 09:35:35;;;;;;;21.10;14.15;;;11.70;99.90;;;;;;5040470;28;20576;-63
2022/11/16 09:38:01;;;;;;;22.80;12.95;;;11.80;99.90;;;;;;5034776;28;20034;-64
2022/11/16 09:40:34;;;;;;;18.48;12.00;;;11.80;99.90;;;;;;5033838;28;20037;-63
2022/11/16 09:43:05;;;;;;;20.38;13.25;;;11.80;99.90;;;;;;5034800;28;20033;-63
2022/11/16 09:46:01;;;;;;;17.67;12.00;;;11.70;99.90;;;;;;5035310;28;20045;-63
2022/11/16 09:48:27;;;;;;;18.40;12.40;;;11.70;99.90;;;;;;5033677;28;20037;-64
2022/11/16 09:50:58;;;;;;;19.13;12.35;;;12.00;99.90;;;;;;5034812;28;20399;-64
2022/11/16 09:53:44;;;;;;;18.77;12.43;;;12.10;99.90;;;;;;5033536;28;20072;-64
2022/11/16 09:56:16;;;;;;;15.90;10.07;;;12.00;99.90;;;;;;5034721;28;20037;-64
2022/11/16 09:59:02;;;;;;;18.55;11.25;;;11.90;99.90;;;;;;5034632;28;20049;-64
2022/11/16 10:02:02;;;;;;;15.63;9.25;;;11.90;99.90;;;;;;5037734;28;20069;-63
2022/11/16 10:04:49;;;;;;;15.50;9.00;;;11.80;99.90;;;;;;5034536;28;20061;-64
2022/11/16 10:07:18;;;;;;;15.40;10.35;;;11.80;99.90;;;;;;5034555;28;20033;-63
2022/11/16 10:09:46;;;;;;;15.65;10.82;;;;;;;;;;5039840;28;20037;-64
2022/11/16 10:12:30;;;;;;;14.88;9.10;;;11.90;99.90;;;;;;5054544;28;20033;-63
2022/11/16 10:15:11;;;;;;;17.90;10.20;;;12.00;99.90;;;;;;5053169;28;20129;-63
2022/11/16 10:18:01;;;;;;;15.65;10.30;;;11.80;99.90;;;;;;5040972;28;20272;-64
2022/11/16 10:20:33;;;;;;;15.93;9.98;;;11.90;99.90;;;;;;5054206;28;20519;-64
2022/11/16 10:23:36;;;;;;;15.10;9.75;;;11.80;99.90;;;;;;5045561;28;20126;-63
2022/11/16 10:26:04;;;;;;;14.55;8.13;;;11.80;99.90;;;;;;5048096;28;20049;-64
2022/11/16 10:28:48;;;;;;;15.73;8.80;;;11.80;99.90;;;;;;5016607;28;20041;-64
2022/11/16 10:31:34;;;;;;;12.45;8.75;;;11.80;99.90;;;;;;5040874;28;20538;-63
2022/11/16 10:34:02;;;;;;;14.02;8.30;;;11.80;99.90;;;;;;5011636;28;20454;-63
2022/11/16 10:36:31;;;;;;;14.07;7.97;;;11.90;99.90;;;;;;5032575;28;20043;-63
2022/11/16 10:39:12;;;;;;;14.07;8.75;;;11.80;99.90;;;;;;5047778;28;20048;-64
2022/11/16 10:41:44;;;;;;;14.05;8.10;;;11.80;99.90;;;;;;5041768;28;20455;-64
2022/11/16 10:44:31;;;;;;;16.17;8.80;;;12.00;99.90;;;;;;5036946;28;20124;-64
2022/11/16 10:47:19;;;;;;;12.95;6.95;;;12.10;99.90;;;;;;5032883;28;20067;-65
2022/11/16 10:49:54;;;;;;;11.50;7.20;;;12.30;99.90;;;;;;5033580;28;20046;-65
2022/11/16 10:52:19;;;;;;;10.10;6.53;;;12.50;99.90;;;;;;5033844;28;20108;-64
2022/11/16 10:54:45;;;;;;;14.82;6.68;;;12.50;99.90;;;;;;5031685;28;20120;-65
2022/11/16 10:57:13;;;;;;;10.73;7.63;;;12.50;99.90;;;;;;5033534;28;20029;-65
2022/11/16 10:59:42;;;;;;;10.60;5.68;;;12.30;99.90;;;;;;5033470;28;20107;-64
2022/11/16 11:02:36;;;;;;;10.05;6.88;;;12.10;99.90;;;;;;5040246;28;20530;-64
2022/11/16 11:05:18;;;;;;;10.90;6.70;;;12.10;99.90;;;;;;5033286;28;20471;-64
2022/11/16 11:08:22;;;;;;;10.57;6.18;;;12.10;99.90;;;;;;5033321;28;20411;-64
2022/11/16 11:11:00;;;;;;;10.55;5.40;;;12.30;99.90;;;;;;5035527;28;20110;-64
2022/11/16 11:13:26;;;;;;;10.18;5.10;;;;;;;;;;5033309;28;20041;-65
2022/11/16 11:16:13;;;;;;;11.77;7.10;;;12.20;99.90;;;;;;5032001;28;20454;-63
2022/11/16 11:18:38;;;;;;;8.10;5.30;;;12.20;99.90;;;;;;5039140;28;20033;-63
2022/11/16 11:21:07;;;;;;;12.43;4.40;;;12.00;99.90;;;;;;5033326;28;20518;-63
2022/11/16 11:23:59;;;;;;;10.57;5.20;;;12.00;99.90;;;;;;5033217;28;20083;-63
2022/11/16 11:26:35;;;;;;;11.52;5.10;;;12.00;99.90;;;;;;5029918;28;20562;-63
2022/11/16 11:29:18;;;;;;;8.43;5.00;;;12.00;99.90;;;;;;5033336;28;20041;-63
2022/11/16 11:31:48;;;;;;;9.90;5.35;;;12.00;99.90;;;;;;5031831;28;20416;-63
2022/11/16 11:34:19;;;;;;;12.27;5.00;;;12.10;99.90;;;;;;5032884;28;20037;-63
2022/11/16 11:37:04;;;;;;;8.07;4.75;;;12.20;99.90;;;;;;5031628;28;20049;-63
2022/11/16 11:39:36;;;;;;;9.10;3.67;;;12.20;99.90;;;;;;5037319;28;20094;-64
2022/11/16 11:42:13;;;;;;;7.93;3.92;;;12.10;99.90;;;;;;5035301;28;20487;-62
2022/11/16 11:44:48;;;;;;;8.27;3.85;;;12.30;99.90;;;;;;5031553;28;20088;-63
2022/11/16 11:47:26;;;;;;;13.10;3.80;;;11.90;99.90;;;;;;5031541;28;20517;-64
2022/11/16 11:50:21;;;;;;;8.73;3.83;;;11.90;99.90;;;;;;5032961;28;20041;-63
2022/11/16 11:53:29;;;;;;;8.50;3.63;;;11.70;99.90;;;;;;5032331;28;20053;-63
2022/11/16 11:55:57;;;;;;;10.73;3.13;;;11.70;99.90;;;;;;5043517;28;20053;-64
2022/11/16 11:58:32;;;;;;;11.45;3.33;;;11.70;99.90;;;;;;5032895;28;20051;-64
2022/11/16 12:01:24;;;;;;;8.23;2.95;;;11.80;99.90;;;;;;5031161;28;20487;-66
2022/11/16 12:04:15;;;;;;;7.43;2.90;;;12.10;99.90;;;;;;5032587;28;20565;-67
2022/11/16 12:06:57;;;;;;;12.40;2.60;;;12.20;99.90;;;;;;5033759;28;20057;-65
2022/11/16 12:09:46;;;;;;;6.03;2.72;;;12.40;99.90;;;;;;5035950;28;20041;-66
2022/11/16 12:12:24;;;;;;;9.23;2.80;;;12.30;99.90;;;;;;5042895;28;20116;-65
2022/11/16 12:15:01;;;;;;;10.38;3.13;;;12.40;99.90;;;;;;5035300;28;20045;-65
2022/11/16 12:17:48;;;;;;;9.85;3.08;;;12.40;99.90;;;;;;5037948;28;20044;-66
2022/11/16 12:20:32;;;;;;;14.85;3.70;;;12.80;99.90;;;;;;5036465;28;20144;-66
2022/11/16 12:23:28;;;;;;;8.85;2.67;;;13.00;99.90;;;;;;5035453;28;20030;-65
2022/11/16 12:26:13;;;;;;;;;;;12.80;99.90;;;;;;5035742;28;20091;-65
2022/11/16 12:29:02;;;;;;;7.80;2.47;;;12.90;99.90;;;;;;5036135;28;19939;-65
2022/11/16 12:31:37;;;;;;;12.90;2.95;;;12.60;99.90;;;;;;5036589;28;20055;-66
2022/11/16 12:34:37;;;;;;;7.30;2.72;;;12.70;99.90;;;;;;5034876;28;20042;-65
2022/11/16 12:37:09;;;;;;;11.43;2.95;;;12.80;99.90;;;;;;5036170;28;20038;-65
2022/11/16 12:39:50;;;;;;;8.25;3.08;;;13.50;99.90;;;;;;5036112;28;20037;-65
2022/11/16 12:42:37;;;;;;;11.43;2.95;;;14.00;99.90;;;;;;5035239;28;20554;-65
2022/11/16 12:45:21;;;;;;;11.20;3.28;;;14.20;99.90;;;;;;5036143;28;20052;-66
2022/11/16 12:48:15;;;;;;;12.52;2.92;;;14.10;99.90;;;;;;5035784;28;20037;-65
2022/11/16 12:51:05;;;;;;;9.48;3.10;;;13.80;99.90;;;;;;5034522;28;20046;-65
2022/11/16 12:53:55;;;;;;;10.88;2.95;;;13.60;99.90;;;;;;5034994;28;20092;-66
2022/11/16 12:56:36;;;;;;;6.30;2.72;;;13.20;99.90;;;;;;5034393;28;20046;-65
2022/11/16 12:59:31;;;;;;;8.25;2.85;;;13.00;99.90;;;;;;5034796;28;20046;-66
2022/11/16 13:02:07;;;;;;;9.60;3.38;;;12.80;99.90;;;;;;5034673;28;20041;-65
2022/11/16 13:04:44;;;;;;;10.50;2.85;;;13.30;99.90;;;;;;5035475;28;20083;-65
2022/11/16 13:07:23;;;;;;;10.73;2.80;;;13.20;99.90;;;;;;5036041;28;20062;-66
2022/11/16 13:09:55;;;;;;;6.18;2.70;;;13.20;99.90;;;;;;5035201;28;20071;-65
2022/11/16 13:12:23;;;;;;;6.18;2.75;;;;;;;;;;5039439;28;20120;-65
2022/11/16 13:14:57;;;;;;;6.80;3.05;;;13.20;99.90;;;;;;5044033;28;20045;-65
2022/11/16 13:17:26;;;;;;;8.30;2.70;;;13.10;99.90;;;;;;5039280;28;20033;-65
2022/11/16 13:20:23;;;;;;;7.97;2.72;;;12.90;99.90;;;;;;5055593;28;20045;-65
2022/11/16 13:23:00;;;;;;;6.43;2.58;;;12.80;99.90;;;;;;5034477;28;20439;-65
2022/11/16 13:25:42;;;;;;;9.38;3.38;;;12.70;99.90;;;;;;5049250;28;20453;-65
2022/11/16 13:28:13;;;;;;;5.47;2.50;;;12.50;99.90;;;;;;5046320;28;20561;-65
2022/11/16 13:30:58;;;;;;;12.48;2.90;;;12.40;99.90;;;;;;5048412;28;20056;-66
2022/11/16 13:33:43;;;;;;;9.57;2.60;;;12.30;99.90;;;;;;5043913;28;20045;-65
2022/11/16 13:36:30;;;;;;;10.82;3.17;;;12.30;99.90;;;;;;5035016;28;20038;-66
2022/11/16 13:38:55;;;;;;;13.15;3.20;;;12.30;99.90;;;;;;5035329;28;20381;-65
2022/11/16 13:41:39;;;;;;;9.82;2.42;;;12.20;99.90;;;;;;5041252;28;20056;-65
2022/11/16 13:44:19;;;;;;;9.45;2.50;;;12.10;99.90;;;;;;5041016;28;20030;-65
2022/11/16 13:47:02;;;;;;;8.13;2.45;;;12.20;99.90;;;;;;5053774;28;20045;-65
2022/11/16 13:49:31;;;;;;;12.48;2.75;;;12.20;99.90;;;;;;5040890;28;20483;-66